Time;durP1;ratioP1;P1;durP2;ratioP2;P2;SDS_P1;SDS_P2;PMS_P1;PMS_P2;Temp;Humidity;BMP_temperature;BMP_pressure;BME280_temperature;BME280_humidity;BME280_pressure;Samples;Min_cycle;Max_cycle;Signal;HPM_P1;HPM_P2
2021/09/22 00:02:10;;;;;;;;;;;;;;;11.14;70.75;101811.13;5065536;28;19921;-76
2021/09/22 00:04:36;;;;;;;;;;;;;;;11.16;71.21;101808.38;5065105;28;19928;-76
2021/09/22 00:07:01;;;;;;;;;;;;;;;11.13;71.21;101816.53;5051071;28;19953;-76
2021/09/22 00:09:26;;;;;;;;;;;;;;;11.09;71.49;101812.47;5054615;28;19920;-76
2021/09/22 00:11:51;;;;;;;;;;;;;;;11.09;71.00;101810.66;5054566;28;19983;-76
2021/09/22 00:14:17;;;;;;;;;;;;;;;11.09;70.86;101809.84;5054378;28;19978;-76
2021/09/22 00:16:42;;;;;;;;;;;;;;;11.13;70.03;101803.31;5052775;28;20352;-76
2021/09/22 00:19:07;;;;;;;;;;;;;;;11.07;70.42;101809.94;5054501;28;19920;-76
2021/09/22 00:21:33;;;;;;;;;;;;;;;10.99;71.77;101809.72;5054401;28;20049;-76
2021/09/22 00:23:58;;;;;;;;;;;;;;;10.93;71.40;101816.34;5054201;28;19943;-76
2021/09/22 00:26:23;;;;;;;;;;;;;;;10.97;71.06;101822.25;5059830;28;19921;-76
2021/09/22 00:28:48;;;;;;;;;;;;;;;10.92;72.33;101813.84;5062628;28;20389;-76
2021/09/22 00:31:13;;;;;;;;;;;;;;;10.93;71.45;101816.34;5060689;28;20302;-76
2021/09/22 00:33:39;;;;;;;;;;;;;;;10.87;72.59;101811.56;5058818;28;20384;-76
2021/09/22 00:36:04;;;;;;;;;;;;;;;10.86;73.20;101811.66;5056067;28;19936;-76
2021/09/22 00:38:29;;;;;;;;;;;;;;;10.95;71.67;101818.88;5068538;28;19920;-76
2021/09/22 00:40:55;;;;;;;;;;;;;;;10.88;71.97;101812.38;5052300;28;20445;-76
2021/09/22 00:43:20;;;;;;;;;;;;;;;10.81;73.06;101807.56;5052327;28;20078;-76
2021/09/22 00:45:45;;;;;;;;;;;;;;;10.78;72.99;101807.81;5052738;28;19921;-76
2021/09/22 00:48:11;;;;;;;;;;;;;;;10.81;72.34;101812.84;5052296;28;19920;-76
2021/09/22 00:50:36;;;;;;;;;;;;;;;10.81;71.80;101812.84;5052050;28;19968;-76
2021/09/22 00:53:02;;;;;;;;;;;;;;;10.82;71.84;101811.03;5052232;28;20027;-76
2021/09/22 00:55:27;;;;;;;;;;;;;;;10.69;73.81;101807.72;5059954;28;20200;-76
2021/09/22 00:57:54;;;;;;;;;;;;;;;10.67;73.73;101810.47;5052192;28;19921;-76
2021/09/22 01:00:21;;;;;;;;;;;;;;;10.69;74.65;101813.00;5052178;28;19924;-76
2021/09/22 01:02:47;;;;;;;;;;;;;;;10.72;75.06;101810.09;5052455;28;19974;-76
2021/09/22 01:05:23;;;;;;;;;;;;;;;10.70;73.42;101804.94;5051284;28;19974;-76
2021/09/22 01:07:48;;;;;;;;;;;;;;;10.69;73.14;101805.06;5051568;28;19921;-76
2021/09/22 01:10:14;;;;;;;;;;;;;;;10.65;73.05;101793.03;5051309;28;19927;-76
2021/09/22 01:12:39;;;;;;;;;;;;;;;10.55;74.69;101796.41;5051855;28;19925;-76
2021/09/22 01:15:05;;;;;;;;;;;;;;;10.56;74.55;101803.38;5051390;28;20450;-76
2021/09/22 01:17:32;;;;;;;;;;;;;;;10.69;72.73;101803.25;5064442;28;19921;-76
2021/09/22 01:20:04;;;;;;;;;;;;;;;10.70;72.40;101804.94;5052724;28;19917;-76
2021/09/22 01:22:29;;;;;;;;;;;;;;;10.73;72.13;101795.94;5039935;28;19921;-76
2021/09/22 01:24:55;;;;;;;;;;;;;;;10.73;71.76;101791.47;5051649;28;19925;-76
2021/09/22 01:27:20;;;;;;;;;;;;;;;10.59;72.73;101783.78;5052375;28;19921;-76
2021/09/22 01:29:46;;;;;;;;;;;;;;;10.55;73.03;101774.41;5052623;28;20381;-76
2021/09/22 01:32:11;;;;;;;;;;;;;;;10.51;73.30;101780.88;5051305;28;20783;-75
2021/09/22 01:34:36;;;;;;;;;;;;;;;10.52;73.13;101785.22;5051382;28;20011;-76
2021/09/22 01:37:02;;;;;;;;;;;;;;;10.51;73.94;101784.41;5051998;28;20023;-76
2021/09/22 01:39:35;;;;;;;;;;;;;;;10.52;73.36;101779.94;5066940;28;19921;-76
2021/09/22 01:42:00;;;;;;;;;;;;;;;10.52;73.21;101783.44;5051130;28;19925;-76
2021/09/22 01:44:25;;;;;;;;;;;;;;;10.49;73.39;101785.47;5051282;28;19928;-76
2021/09/22 01:46:50;;;;;;;;;;;;;;;10.46;74.06;101799.75;5051537;28;19920;-76
2021/09/22 01:49:22;;;;;;;;;;;;;;;10.46;73.41;101796.28;5055627;28;19921;-76
2021/09/22 01:51:53;;;;;;;;;;;;;;;10.43;73.54;101807.09;5051641;28;19986;-76
2021/09/22 01:54:18;;;;;;;;;;;;;;;10.49;72.69;101809.28;5056062;28;19935;-76
2021/09/22 01:56:44;;;;;;;;;;;;;;;10.38;73.28;101810.09;5051578;28;19925;-76
2021/09/22 01:59:09;;;;;;;;;;;;;;;10.25;74.67;101815.47;5051073;28;19921;-76
2021/09/22 02:01:34;;;;;;;;;;;;;;;10.29;73.90;101809.00;5051115;28;20355;-76
2021/09/22 02:03:59;;;;;;;;;;;;;;;10.30;73.81;101812.50;5050819;28;19928;-76
2021/09/22 02:06:24;;;;;;;;;;;;;;;10.25;73.56;101802.25;5048838;28;19978;-76
2021/09/22 02:08:50;;;;;;;;;;;;;;;10.21;74.25;101792.88;5050770;28;20416;-76
2021/09/22 02:11:15;;;;;;;;;;;;;;;10.15;74.94;101798.63;5050926;28;19925;-76
2021/09/22 02:13:40;;;;;;;;;;;;;;;10.20;74.65;101794.69;5051372;28;20389;-76
2021/09/22 02:16:05;;;;;;;;;;;;;;;10.22;75.20;101786.59;5049831;28;19952;-76
2021/09/22 02:18:31;;;;;;;;;;;;;;;10.30;73.77;101791.38;5050343;28;19925;-76
2021/09/22 02:20:56;;;;;;;;;;;;;;;10.26;74.15;101784.59;5051277;28;20499;-76
2021/09/22 02:23:21;;;;;;;;;;;;;;;10.29;73.90;101787.00;5049712;28;19929;-76
2021/09/22 02:25:46;;;;;;;;;;;;;;;10.16;74.47;101781.81;5050392;28;19928;-76
2021/09/22 02:28:11;;;;;;;;;;;;;;;10.21;73.94;101782.28;5050512;28;19927;-76
2021/09/22 02:30:37;;;;;;;;;;;;;;;10.21;73.89;101783.13;5050319;28;19925;-76
2021/09/22 02:33:02;;;;;;;;;;;;;;;10.13;76.19;101779.38;5050330;28;19978;-76
2021/09/22 02:35:27;;;;;;;;;;;;;;;10.10;76.32;101769.06;5050448;28;19928;-76
2021/09/22 02:37:53;;;;;;;;;;;;;;;10.12;76.23;101775.06;5050717;28;19920;-76
2021/09/22 02:40:18;;;;;;;;;;;;;;;10.13;76.02;101768.81;5065613;28;19960;-76
2021/09/22 02:42:44;;;;;;;;;;;;;;;10.20;74.60;101767.38;5050475;28;20135;-76
2021/09/22 02:45:09;;;;;;;;;;;;;;;10.12;77.14;101767.16;5077775;28;19921;-76
2021/09/22 02:47:35;;;;;;;;;;;;;;;10.06;77.59;101770.25;5053261;28;19944;-76
2021/09/22 02:50:00;;;;;;;;;;;;;;;10.07;75.75;101764.03;5051355;28;19920;-76
2021/09/22 02:52:26;;;;;;;;;;;;;;;10.05;75.82;101766.75;5049263;28;19929;-76
2021/09/22 02:54:51;;;;;;;;;;;;;;;10.02;75.66;101764.38;5051658;28;19972;-76
2021/09/22 02:57:16;;;;;;;;;;;;;;;10.07;75.10;101762.22;5050262;28;20474;-76
2021/09/22 02:59:41;;;;;;;;;;;;;;;10.03;75.29;101768.69;5049855;28;19967;-76
2021/09/22 03:02:07;;;;;;;;;;;;;;;9.99;75.53;101769.91;5049366;28;19928;-76
2021/09/22 03:04:32;;;;;;;;;;;;;;;10.00;75.37;101777.69;5049068;28;19921;-76
2021/09/22 03:06:57;;;;;;;;;;;;;;;9.99;75.28;101767.25;5050170;28;19921;-76
2021/09/22 03:09:24;;;;;;;;;;;;;;;10.05;74.86;101773.88;5048278;28;19924;-76
2021/09/22 03:11:49;;;;;;;;;;;;;;;10.00;74.81;101788.25;5049647;28;19936;-76
2021/09/22 03:14:14;;;;;;;;;;;;;;;10.04;74.59;101780.13;5049466;28;20056;-76
2021/09/22 03:16:39;;;;;;;;;;;;;;;9.95;75.09;101779.00;5048215;28;20000;-76
2021/09/22 03:19:05;;;;;;;;;;;;;;;9.92;74.95;101777.44;5049486;28;20121;-76
2021/09/22 03:21:30;;;;;;;;;;;;;;;9.78;76.78;101781.13;5049948;28;20399;-76
2021/09/22 03:23:55;;;;;;;;;;;;;;;9.75;76.53;101780.53;5049450;28;19920;-76
2021/09/22 03:26:21;;;;;;;;;;;;;;;9.78;76.16;101778.50;5049028;28;19920;-76
2021/09/22 03:28:46;;;;;;;;;;;;;;;9.70;76.48;101777.38;5050011;28;19925;-75
2021/09/22 03:31:11;;;;;;;;;;;;;;;9.64;76.62;101777.84;5049488;28;20305;-75
2021/09/22 03:33:36;;;;;;;;;;;;;;;9.57;77.08;101788.03;5049400;28;20042;-76
2021/09/22 03:36:02;;;;;;;;;;;;;;;9.65;76.29;101785.63;5048966;28;20003;-76
2021/09/22 03:38:27;;;;;;;;;;;;;;;9.63;77.27;101787.56;5049503;28;20176;-76
2021/09/22 03:40:53;;;;;;;;;;;;;;;9.64;77.70;101785.78;5049699;28;20407;-76
2021/09/22 03:43:18;;;;;;;;;;;;;;;9.64;76.79;101788.41;5063964;28;20282;-76
2021/09/22 03:45:43;;;;;;;;;;;;;;;9.63;76.80;101786.72;5048793;28;19947;-76
2021/09/22 03:48:09;;;;;;;;;;;;;;;9.67;76.24;101782.88;5051500;28;19928;-76
2021/09/22 03:50:34;;;;;;;;;;;;;;;9.62;77.62;101793.78;5049524;28;20156;-76
2021/09/22 03:52:59;;;;;;;;;;;;;;;9.67;76.45;101782.88;5049509;28;20407;-76
2021/09/22 03:55:24;;;;;;;;;;;;;;;9.63;77.09;101790.22;5060103;28;19924;-76
2021/09/22 03:57:50;;;;;;;;;;;;;;;9.55;77.89;101788.13;5049793;28;20300;-76
2021/09/22 04:00:15;;;;;;;;;;;;;;;9.56;75.95;101789.81;5048595;28;19921;-76
2021/09/22 04:02:40;;;;;;;;;;;;;;;9.51;77.40;101789.31;5049546;28;19921;-76
2021/09/22 04:05:06;;;;;;;;;;;;;;;9.47;77.23;101792.31;5047746;28;19960;-76
2021/09/22 04:07:31;;;;;;;;;;;;;;;9.45;77.07;101791.56;5049008;28;19920;-76
2021/09/22 04:09:56;;;;;;;;;;;;;;;9.42;77.03;101784.72;5049112;28;19974;-76
2021/09/22 04:12:22;;;;;;;;;;;;;;;9.42;79.10;101789.16;5048779;28;19924;-76
2021/09/22 04:14:47;;;;;;;;;;;;;;;9.41;79.33;101783.03;5049613;28;19924;-75
2021/09/22 04:17:12;;;;;;;;;;;;;;;9.44;77.13;101784.59;5048668;28;19924;-76
2021/09/22 04:19:37;;;;;;;;;;;;;;;9.35;79.85;101783.50;5048031;28;19999;-76
2021/09/22 04:22:03;;;;;;;;;;;;;;;9.23;79.00;101789.69;5049357;28;19917;-76
2021/09/22 04:24:29;;;;;;;;;;;;;;;9.17;79.11;101784.84;5048135;28;19936;-76
2021/09/22 04:26:54;;;;;;;;;;;;;;;9.06;80.85;101783.81;5049397;28;19926;-76
2021/09/22 04:29:19;;;;;;;;;;;;;;;9.00;81.14;101781.63;5049513;28;19939;-76
2021/09/22 04:31:44;;;;;;;;;;;;;;;9.06;80.32;101789.09;5049117;28;20312;-76
2021/09/22 04:34:10;;;;;;;;;;;;;;;9.16;78.87;101785.81;5063505;28;19916;-76
2021/09/22 04:36:35;;;;;;;;;;;;;;;9.20;78.63;101782.81;5048549;28;19925;-76
2021/09/22 04:39:01;;;;;;;;;;;;;;;9.25;77.98;101785.97;5049357;28;19921;-76
2021/09/22 04:41:26;;;;;;;;;;;;;;;9.23;79.00;101787.03;5049323;28;19928;-76
2021/09/22 04:43:51;;;;;;;;;;;;;;;9.26;79.38;101787.63;5049937;28;19916;-76
2021/09/22 04:46:16;;;;;;;;;;;;;;;9.28;78.50;101787.53;5047711;28;20331;-76
2021/09/22 04:48:42;;;;;;;;;;;;;;;9.26;79.53;101795.56;5066542;28;20397;-76
2021/09/22 04:51:07;;;;;;;;;;;;;;;9.24;80.63;101786.91;5049180;28;19920;-76
2021/09/22 04:53:33;;;;;;;;;;;;;;;9.24;80.49;101800.09;5053680;28;19921;-76
2021/09/22 04:55:58;;;;;;;;;;;;;;;9.25;79.83;101801.81;5054096;28;19931;-76
2021/09/22 04:58:23;;;;;;;;;;;;;;;9.18;79.54;101800.56;5052624;28;19920;-76
2021/09/22 05:00:48;;;;;;;;;;;;;;;9.10;81.26;101806.38;5053183;28;19920;-76
2021/09/22 05:03:15;;;;;;;;;;;;;;;9.11;79.46;101800.16;5068069;28;20019;-76
2021/09/22 05:05:40;;;;;;;;;;;;;;;9.10;78.99;101802.91;5051862;28;20420;-76
2021/09/22 05:08:05;;;;;;;;;;;;;;;9.05;78.72;101803.22;5051579;28;19924;-76
2021/09/22 05:10:31;;;;;;;;;;;;;;;9.05;79.86;101797.13;5053039;28;19928;-76
2021/09/22 05:12:56;;;;;;;;;;;;;;;9.04;78.49;101793.63;5052813;28;19933;-76
2021/09/22 05:15:21;;;;;;;;;;;;;;;8.95;79.61;101804.00;5052067;28;19924;-76
2021/09/22 05:17:46;;;;;;;;;;;;;;;8.87;80.20;101802.78;5052304;28;19920;-76
2021/09/22 05:20:11;;;;;;;;;;;;;;;8.88;79.50;101801.81;5050891;28;20042;-76
2021/09/22 05:22:37;;;;;;;;;;;;;;;8.89;79.74;101807.91;5052521;28;20435;-76
2021/09/22 05:25:03;;;;;;;;;;;;;;;8.87;80.10;101805.41;5052417;28;19921;-76
2021/09/22 05:27:28;;;;;;;;;;;;;;;8.83;80.90;101809.19;5052328;28;19978;-76
2021/09/22 05:29:53;;;;;;;;;;;;;;;8.86;81.08;101810.78;5052958;28;19975;-75
2021/09/22 05:32:18;;;;;;;;;;;;;;;8.89;81.34;101803.50;5051612;28;19925;-76
2021/09/22 05:34:44;;;;;;;;;;;;;;;8.92;81.62;101800.63;5059804;28;19925;-75
2021/09/22 05:37:09;;;;;;;;;;;;;;;9.01;82.57;101796.50;5051841;28;20007;-75
2021/09/22 05:39:34;;;;;;;;;;;;;;;9.09;80.92;101802.06;5052980;28;19925;-75
2021/09/22 05:41:59;;;;;;;;;;;;;;;9.10;79.73;101798.47;5052458;28;20008;-75
2021/09/22 05:44:25;;;;;;;;;;;;;;;9.09;79.45;101803.88;5051581;28;19921;-75
2021/09/22 05:46:50;;;;;;;;;;;;;;;9.08;79.46;101800.38;5051578;28;19920;-75
2021/09/22 05:49:16;;;;;;;;;;;;;;;9.10;80.13;101813.44;5083157;28;19920;-75
2021/09/22 05:51:41;;;;;;;;;;;;;;;9.14;80.16;101807.84;5057905;28;19929;-75
2021/09/22 05:54:06;;;;;;;;;;;;;;;9.24;81.57;101813.28;5052646;28;20312;-75
2021/09/22 05:56:31;;;;;;;;;;;;;;;9.30;83.33;101810.22;5052579;28;20328;-75
2021/09/22 05:58:57;;;;;;;;;;;;;;;9.34;82.93;101819.63;5051776;28;19978;-75
2021/09/22 06:01:22;;;;;;;;;;;;;;;9.36;81.56;101824.75;5052516;28;20393;-75
2021/09/22 06:03:47;;;;;;;;;;;;;;;9.42;82.89;101826.13;5053205;28;19917;-75
2021/09/22 06:06:12;;;;;;;;;;;;;;;9.51;82.85;101826.28;5050380;28;20375;-75
2021/09/22 06:08:38;;;;;;;;;;;;;;;9.65;82.86;101827.06;5051745;28;19928;-75
2021/09/22 06:11:03;;;;;;;;;;;;;;;9.82;80.80;101828.44;5051784;28;20067;-75
2021/09/22 06:13:28;;;;;;;;;;;;;;;10.04;79.26;101832.97;5051920;28;19921;-75
2021/09/22 06:15:54;;;;;;;;;;;;;;;10.23;79.26;101843.81;5052220;28;19956;-75
2021/09/22 06:18:19;;;;;;;;;;;;;;;10.49;78.39;101838.38;5051750;28;19928;-75
2021/09/22 06:20:45;;;;;;;;;;;;;;;10.60;76.55;101846.28;5051954;28;19939;-76
2021/09/22 06:23:10;;;;;;;;;;;;;;;10.70;75.16;101849.94;5052411;28;20004;-75
2021/09/22 06:25:35;;;;;;;;;;;;;;;10.79;74.99;101851.81;5056722;28;19931;-75
2021/09/22 06:28:00;;;;;;;;;;;;;;;10.88;74.16;101846.78;5062144;28;19920;-75
2021/09/22 06:30:26;;;;;;;;;;;;;;;11.04;73.37;101848.09;5059409;28;19951;-75
2021/09/22 06:32:51;;;;;;;;;;;;;;;11.33;72.26;101849.38;5062752;28;19928;-76
2021/09/22 06:35:17;;;;;;;;;;;;;;;11.69;71.94;101845.50;5075539;28;19971;-75
2021/09/22 06:37:44;;;;;;;;;;;;;;;11.77;71.04;101845.69;5050915;28;19921;-75
2021/09/22 06:40:10;;;;;;;;;;;;;;;11.89;72.38;101847.41;5049608;28;19942;-76
2021/09/22 06:42:35;;;;;;;;;;;;;;;12.06;71.10;101848.63;5050705;28;19970;-75
2021/09/22 06:45:00;;;;;;;;;;;;;;;12.16;70.68;101847.84;5049937;28;20290;-76
2021/09/22 06:47:25;;;;;;;;;;;;;;;11.96;70.23;101850.34;5051035;28;19916;-76
2021/09/22 06:49:51;;;;;;;;;;;;;;;11.95;71.58;101859.28;5050047;28;20351;-76
2021/09/22 06:52:16;;;;;;;;;;;;;;;11.93;70.22;101853.25;5051659;28;19924;-76
2021/09/22 06:54:41;;;;;;;;;;;;;;;11.94;70.83;101854.09;5050873;28;19920;-76
2021/09/22 06:57:07;;;;;;;;;;;;;;;11.97;70.44;101854.69;5050636;28;19944;-75
2021/09/22 06:59:32;;;;;;;;;;;;;;;11.96;70.29;101855.66;5049967;28;19921;-76
2021/09/22 07:01:57;;;;;;;;;;;;;;;12.13;70.55;101856.88;5049514;28;19929;-76
2021/09/22 07:04:22;;;;;;;;;;;;;;;12.24;69.99;101869.25;5049628;28;19921;-76
2021/09/22 07:06:48;;;;;;;;;;;;;;;12.46;68.48;101865.59;5065368;28;19925;-76
2021/09/22 07:09:13;;;;;;;;;;;;;;;12.48;69.28;101855.72;5049244;28;19996;-76
2021/09/22 07:11:38;;;;;;;;;;;;;;;12.66;69.16;101851.47;5065074;28;20317;-76
2021/09/22 07:14:03;;;;;;;;;;;;;;;12.89;67.29;101862.72;5049013;28;19932;-76
2021/09/22 07:16:29;;;;;;;;;;;;;;;13.33;66.66;101857.16;5053081;28;19920;-76
2021/09/22 07:18:54;;;;;;;;;;;;;;;14.15;66.95;101853.25;5050601;28;19925;-76
2021/09/22 07:21:19;;;;;;;;;;;;;;;14.80;67.29;101848.91;5049930;28;19931;-76
2021/09/22 07:23:45;;;;;;;;;;;;;;;14.94;64.75;101857.38;5049828;28;20282;-76
2021/09/22 07:26:10;;;;;;;;;;;;;;;14.64;64.98;101860.16;5049058;28;19917;-76
2021/09/22 07:28:36;;;;;;;;;;;;;;;14.68;63.61;101859.84;5049920;28;20301;-74
2021/09/22 07:31:02;;;;;;;;;;;;;;;14.84;63.43;101849.44;5049636;28;20351;-74
2021/09/22 07:33:28;;;;;;;;;;;;;;;14.96;62.23;101852.72;5054156;28;20339;-74
2021/09/22 07:35:53;;;;;;;;;;;;;;;14.79;62.29;101854.34;5049077;28;19921;-74
2021/09/22 07:38:18;;;;;;;;;;;;;;;14.61;61.71;101856.94;5048541;28;20401;-74
2021/09/22 07:40:44;;;;;;;;;;;;;;;14.14;62.46;101847.09;5050100;28;19932;-74
2021/09/22 07:43:10;;;;;;;;;;;;;;;13.96;63.04;101848.78;5049148;28;19925;-73
2021/09/22 07:45:35;;;;;;;;;;;;;;;14.13;63.45;101853.38;5049467;28;19928;-73
2021/09/22 07:48:00;;;;;;;;;;;;;;;14.52;63.36;101855.13;5049485;28;19954;-75
2021/09/22 07:50:26;;;;;;;;;;;;;;;15.00;61.21;101854.97;5048738;28;20016;-76
2021/09/22 07:52:51;;;;;;;;;;;;;;;15.12;62.25;101858.25;5049084;28;19932;-76
2021/09/22 07:55:16;;;;;;;;;;;;;;;15.74;60.00;101866.44;5048742;28;20543;-75
2021/09/22 07:57:41;;;;;;;;;;;;;;;16.48;58.28;101866.97;5047901;28;20316;-75
2021/09/22 08:00:07;;;;;;;;;;;;;;;17.31;56.00;101869.03;5064392;28;19921;-76
2021/09/22 08:02:33;;;;;;;;;;;;;;;17.53;57.92;101864.91;5045795;28;19925;-76
2021/09/22 08:04:58;;;;;;;;;;;;;;;18.08;56.54;101872.31;5048436;28;19971;-76
2021/09/22 08:07:23;;;;;;;;;;;;;;;18.71;55.93;101869.84;5048929;28;19921;-73
2021/09/22 08:09:49;;;;;;;;;;;;;;;19.13;52.33;101869.53;5064881;28;19944;-74
2021/09/22 08:12:14;;;;;;;;;;;;;;;19.67;53.11;101868.72;5064005;28;20292;-74
2021/09/22 08:14:39;;;;;;;;;;;;;;;20.07;51.31;101872.09;5049857;28;19921;-73
2021/09/22 08:17:05;;;;;;;;;;;;;;;20.39;48.71;101872.81;5047967;28;19933;-74
2021/09/22 08:19:32;;;;;;;;;;;;;;;20.41;47.68;101866.25;5049116;28;19960;-73
2021/09/22 08:21:58;;;;;;;;;;;;;;;20.20;49.50;101871.50;5046799;28;19929;-74
2021/09/22 08:24:23;;;;;;;;;;;;;;;19.62;50.95;101871.09;5045311;28;19975;-74
2021/09/22 08:26:53;;;;;;;;;;;;;;;19.81;51.50;101867.97;5062274;28;19924;-74
2021/09/22 08:29:19;;;;;;;;;;;;;;;19.83;51.30;101870.47;5050238;28;19959;-73
2021/09/22 08:31:44;;;;;;;;;;;;;;;20.09;48.56;101876.28;5051281;28;20412;-73
2021/09/22 08:34:09;;;;;;;;;;;;;;;20.21;49.86;101873.97;5051782;28;19921;-74
2021/09/22 08:36:34;;;;;;;;;;;;;;;20.51;50.53;101872.16;5052719;28;19921;-74
2021/09/22 08:39:00;;;;;;;;;;;;;;;21.14;48.72;101867.25;5053070;28;19921;-73
2021/09/22 08:41:25;;;;;;;;;;;;;;;20.73;49.33;101874.97;5052189;28;20136;-74
2021/09/22 08:43:50;;;;;;;;;;;;;;;20.38;48.31;101869.31;5052426;28;20011;-74
2021/09/22 08:46:19;;;;;;;;;;;;;;;20.04;49.36;101870.59;5050683;28;19924;-74
2021/09/22 08:48:44;;;;;;;;;;;;;;;20.11;49.50;101868.03;5059188;28;20636;-73
2021/09/22 08:51:10;;;;;;;;;;;;;;;20.09;49.09;101862.88;5055090;28;19927;-73
2021/09/22 08:53:35;;;;;;;;;;;;;;;20.06;49.43;101865.06;5067999;28;19921;-73
2021/09/22 08:56:01;;;;;;;;;;;;;;;20.44;49.64;101849.75;5069878;28;19916;-73
2021/09/22 08:58:27;;;;;;;;;;;;;;;20.69;48.32;101854.88;5057712;28;19927;-74
2021/09/22 09:00:52;;;;;;;;;;;;;;;21.29;48.66;101844.84;5053156;28;20309;-73
2021/09/22 09:03:30;;;;;;;;;;;;;;;21.63;47.50;101838.81;5052238;28;20293;-74
2021/09/22 09:06:14;;;;;;;;;;;;;;;21.78;47.79;101844.94;5051028;28;19928;-73
2021/09/22 09:08:39;;;;;;;;;;;;;;;22.13;44.51;101858.50;5066936;28;19948;-74
2021/09/22 09:11:05;;;;;;;;;;;;;;;22.24;44.57;101846.38;5051982;28;20364;-74
2021/09/22 09:13:43;;;;;;;;;;;;;;;22.55;44.59;101850.47;5052843;28;20015;-74
2021/09/22 09:16:14;;;;;;;;;;;;;;;22.93;43.80;101842.81;5051444;28;19928;-74
2021/09/22 09:18:43;;;;;;;;;;;;;;;23.37;44.39;101846.06;5055990;28;19921;-74
2021/09/22 09:21:09;;;;;;;;;;;;;;;23.62;42.08;101846.31;5051416;28;20062;-74
2021/09/22 09:23:34;;;;;;;;;;;;;;;23.22;43.38;101847.09;5052434;28;20341;-74
2021/09/22 09:26:03;;;;;;;;;;;;;;;22.70;44.27;101851.22;5051475;28;19929;-74
2021/09/22 09:28:29;;;;;;;;;;;;;;;22.51;45.65;101851.94;5051553;28;20022;-74
2021/09/22 09:30:58;;;;;;;;;;;;;;;21.92;42.64;101850.44;5052195;28;19928;-74
2021/09/22 09:33:30;;;;;;;;;;;;;;;21.40;46.15;101853.28;5052338;28;19932;-74
2021/09/22 09:35:55;;;;;;;;;;;;;;;21.22;44.98;101844.78;5067376;28;20292;-74
2021/09/22 09:38:20;;;;;;;;;;;;;;;20.91;45.66;101851.25;5067287;28;19921;-74
2021/09/22 09:40:45;;;;;;;;;;;;;;;20.95;44.56;101844.47;5067657;28;19921;-74
2021/09/22 09:43:10;;;;;;;;;;;;;;;20.83;46.88;101837.88;5052715;28;19924;-74
2021/09/22 09:45:36;;;;;;;;;;;;;;;21.46;46.09;101840.91;5052215;28;19920;-74
2021/09/22 09:48:02;;;;;;;;;;;;;;;21.34;47.08;101843.25;5053336;28;20136;-75
2021/09/22 09:50:28;;;;;;;;;;;;;;;21.80;44.31;101833.97;5052196;28;19920;-74
2021/09/22 09:53:02;;;;;;;;;;;;;;;21.23;45.29;101832.97;5051975;28;19932;-74
2021/09/22 09:55:28;;;;;;;;;;;;;;;21.34;45.84;101831.66;5060380;28;19921;-74
2021/09/22 09:57:54;;;;;;;;;;;;;;;21.06;44.58;101827.00;5051493;28;20012;-74
2021/09/22 10:00:24;;;;;;;;;;;;;;;21.00;45.45;101820.53;5051512;28;20408;-74
2021/09/22 10:02:50;;;;;;;;;;;;;;;21.29;44.15;101817.94;5051216;28;19921;-74
2021/09/22 10:05:15;;;;;;;;;;;;;;;20.93;45.55;101811.56;5050449;28;19921;-74
2021/09/22 10:07:41;;;;;;;;;;;;;;;20.71;45.78;101815.19;5051106;28;20316;-74
2021/09/22 10:10:07;;;;;;;;;;;;;;;20.51;47.45;101813.06;5065813;28;20019;-74
2021/09/22 10:12:33;;;;;;;;;;;;;;;20.45;46.12;101805.75;5050713;28;20020;-74
2021/09/22 10:14:59;;;;;;;;;;;;;;;20.35;47.14;101815.91;5043936;28;20012;-74
2021/09/22 10:17:28;;;;;;;;;;;;;;;20.41;46.29;101803.63;5051009;28;19979;-73
2021/09/22 10:19:54;;;;;;;;;;;;;;;20.35;47.95;101810.56;5065907;28;19920;-74
2021/09/22 10:22:19;;;;;;;;;;;;;;;19.97;47.50;101794.50;5049399;28;19966;-74
2021/09/22 10:24:47;;;;;;;;;;;;;;;19.86;48.97;101792.28;5050041;28;20019;-74
2021/09/22 10:27:16;;;;;;;;;;;;;;;19.83;49.12;101792.63;5050145;28;20023;-73
2021/09/22 10:30:01;;;;;;;;;;;;;;;19.98;48.67;101787.28;5050246;28;19921;-74
2021/09/22 10:32:52;;;;;;;;;;;;;;;20.06;47.37;101781.81;5039861;28;20806;-74
2021/09/22 10:35:20;;;;;;;;;;;;;;;20.12;48.35;101784.63;5047965;28;19920;-74
2021/09/22 10:37:45;;;;;;;;;;;;;;;20.08;48.45;101777.94;5049960;28;20373;-74
2021/09/22 10:40:16;;;;;;;;;;;;;;;20.25;47.24;101783.97;5049133;28;19923;-74
2021/09/22 10:42:43;;;;;;;;;;;;;;;20.04;48.86;101773.94;5050008;28;20395;-74
2021/09/22 10:45:11;;;;;;;;;;;;;;;20.03;48.19;101766.09;5050478;28;19922;-74
2021/09/22 10:47:36;;;;;;;;;;;;;;;19.93;48.43;101775.25;5049713;28;20121;-74
2021/09/22 10:50:02;;;;;;;;;;;;;;;19.83;48.89;101776.50;5049975;28;19951;-74
2021/09/22 10:52:36;;;;;;;;;;;;;;;19.88;49.19;101777.66;5049097;28;20015;-74
2021/09/22 10:55:06;;;;;;;;;;;;;;;20.06;48.74;101773.78;5064805;28;19928;-74
2021/09/22 10:57:31;;;;;;;;;;;;;;;19.98;48.30;101774.69;5049994;28;20288;-74
2021/09/22 11:00:08;;;;;;;;;;;;;;;19.86;48.48;101765.44;5053175;28;20425;-74
2021/09/22 11:02:47;;;;;;;;;;;;;;;19.57;50.60;101769.69;5047950;28;19916;-74
2021/09/22 11:05:14;;;;;;;;;;;;;;;19.73;49.23;101766.88;5029619;28;19917;-74
2021/09/22 11:07:54;;;;;;;;;;;;;;;19.58;49.54;101765.16;5034952;28;19916;-74
2021/09/22 11:10:32;;;;;;;;;;;;;;;19.49;49.93;101769.72;5039570;28;19924;-74
2021/09/22 11:13:16;;;;;;;;;;;;;;;19.42;50.40;101755.38;5031597;28;20306;-74
2021/09/22 11:15:42;;;;;;;;;;;;;;;19.45;50.40;101755.88;5048227;28;20329;-74
2021/09/22 11:18:08;;;;;;;;;;;;;;;19.43;51.93;101759.75;5035901;28;20393;-74
2021/09/22 11:20:33;;;;;;;;;;;;;;;19.48;50.81;101760.84;5030013;28;19984;-74
2021/09/22 11:23:05;;;;;;;;;;;;;;;19.73;50.07;101756.16;5029177;28;19917;-74
2021/09/22 11:25:31;;;;;;;;;;;;;;;19.39;52.59;101748.53;5053619;28;19923;-74
2021/09/22 11:28:02;;;;;;;;;;;;;;;19.63;51.43;101757.38;5049047;28;19920;-74
2021/09/22 11:30:27;;;;;;;;;;;;;;;19.70;51.09;101745.75;5048474;28;19921;-74
2021/09/22 11:32:53;;;;;;;;;;;;;;;19.75;50.04;101747.91;5048947;28;19951;-74
2021/09/22 11:35:19;;;;;;;;;;;;;;;19.77;49.20;101735.13;5043728;28;20258;-74
2021/09/22 11:37:47;;;;;;;;;;;;;;;19.69;49.03;101736.06;5046749;28;19924;-74
2021/09/22 11:40:12;;;;;;;;;;;;;;;19.69;50.85;101729.88;5047835;28;20310;-74
2021/09/22 11:42:38;;;;;;;;;;;;;;;19.78;50.52;101730.59;5048673;28;19968;-74
2021/09/22 11:45:03;;;;;;;;;;;;;;;19.85;49.41;101720.78;5054717;28;19920;-74
2021/09/22 11:47:29;;;;;;;;;;;;;;;19.82;49.23;101715.81;5056692;28;19951;-74
2021/09/22 11:49:54;;;;;;;;;;;;;;;19.84;49.02;101711.09;5053789;28;19924;-75
2021/09/22 11:52:20;;;;;;;;;;;;;;;19.72;49.22;101706.16;5064316;28;19932;-74
2021/09/22 11:54:47;;;;;;;;;;;;;;;19.55;51.45;101696.59;5048160;28;19970;-74
2021/09/22 11:57:14;;;;;;;;;;;;;;;19.72;50.40;101702.66;5046958;28;19921;-74
2021/09/22 11:59:42;;;;;;;;;;;;;;;19.64;50.41;101694.63;5049434;28;20165;-75
2021/09/22 12:02:08;;;;;;;;;;;;;;;19.46;51.08;101689.63;5047009;28;19921;-74
2021/09/22 12:04:38;;;;;;;;;;;;;;;19.21;52.36;101686.31;5050601;28;19943;-74
2021/09/22 12:07:05;;;;;;;;;;;;;;;19.43;50.71;101690.81;5049139;28;19928;-74
2021/09/22 12:09:41;;;;;;;;;;;;;;;19.49;51.35;101692.75;5041074;28;19944;-74
2021/09/22 12:12:11;;;;;;;;;;;;;;;19.41;52.91;101689.34;5051833;28;19933;-74
2021/09/22 12:14:36;;;;;;;;;;;;;;;19.65;51.53;101699.84;5050811;28;19924;-74
2021/09/22 12:17:09;;;;;;;;;;;;;;;19.59;51.31;101694.34;5052216;28;20390;-74
2021/09/22 12:19:35;;;;;;;;;;;;;;;19.61;51.13;101693.16;5052240;28;20384;-74
2021/09/22 12:22:00;;;;;;;;;;;;;;;19.75;51.79;101685.34;5051951;28;19925;-75
2021/09/22 12:24:28;;;;;;;;;;;;;;;19.84;51.15;101689.63;5052293;28;19920;-74
2021/09/22 12:26:53;;;;;;;;;;;;;;;19.86;51.67;101683.03;5040281;28;20390;-74
2021/09/22 12:29:19;;;;;;;;;;;;;;;19.67;52.97;101680.88;5052515;28;19980;-74
2021/09/22 12:31:45;;;;;;;;;;;;;;;19.69;52.33;101676.19;5051993;28;20159;-74
2021/09/22 12:34:17;;;;;;;;;;;;;;;19.76;51.56;101670.91;5058891;28;20285;-74